sensor_id;sensor_type;location;lat;lon;timestamp;pressure;altitude;pressure_sealevel;temperature;humidity
61870;BME280;47810;42.264;23.826;2023-01-28T00:00:44;93076.53;;;-1.16;86.10
61870;BME280;47810;42.264;23.826;2023-01-28T00:03:13;93067.16;;;-1.19;86.04
61870;BME280;47810;42.264;23.826;2023-01-28T00:05:40;93071.47;;;-1.19;86.17
61870;BME280;47810;42.264;23.826;2023-01-28T00:08:09;93074.59;;;-1.36;85.90
61870;BME280;47810;42.264;23.826;2023-01-28T00:13:05;93081.69;;;-1.41;85.88
61870;BME280;47810;42.264;23.826;2023-01-28T00:15:37;93082.19;;;-1.30;86.18
61870;BME280;47810;42.264;23.826;2023-01-28T00:20:35;93084.78;;;-1.30;86.15
61870;BME280;47810;42.264;23.826;2023-01-28T00:25:37;93087.34;;;-1.56;86.75
61870;BME280;47810;42.264;23.826;2023-01-28T00:28:04;93095.31;;;-1.36;86.77
61870;BME280;47810;42.264;23.826;2023-01-28T00:30:30;93089.81;;;-1.25;86.17
61870;BME280;47810;42.264;23.826;2023-01-28T00:35:28;93094.22;;;-1.29;86.33
61870;BME280;47810;42.264;23.826;2023-01-28T00:37:54;93100.94;;;-1.23;86.23
61870;BME280;47810;42.264;23.826;2023-01-28T00:40:23;93100.31;;;-1.30;86.11
61870;BME280;47810;42.264;23.826;2023-01-28T00:42:50;93102.09;;;-1.32;86.70
61870;BME280;47810;42.264;23.826;2023-01-28T00:45:15;93109.72;;;-1.27;86.78
61870;BME280;47810;42.264;23.826;2023-01-28T00:47:45;93103.69;;;-1.28;86.42
61870;BME280;47810;42.264;23.826;2023-01-28T00:50:14;93116.75;;;-1.31;86.07
61870;BME280;47810;42.264;23.826;2023-01-28T00:52:43;93107.06;;;-1.26;86.60
61870;BME280;47810;42.264;23.826;2023-01-28T00:55:09;93107.81;;;-1.49;87.05
61870;BME280;47810;42.264;23.826;2023-01-28T00:57:35;93111.88;;;-1.42;86.78
61870;BME280;47810;42.264;23.826;2023-01-28T01:00:00;93111.88;;;-1.42;86.55
61870;BME280;47810;42.264;23.826;2023-01-28T01:02:30;93109.81;;;-1.30;86.37
61870;BME280;47810;42.264;23.826;2023-01-28T01:04:56;93107.25;;;-1.32;86.31
61870;BME280;47810;42.264;23.826;2023-01-28T01:07:27;93114.91;;;-1.27;86.50
61870;BME280;47810;42.264;23.826;2023-01-28T01:10:17;93105.19;;;-1.21;85.88
61870;BME280;47810;42.264;23.826;2023-01-28T01:12:44;93115.44;;;-1.18;85.93
61870;BME280;47810;42.264;23.826;2023-01-28T01:15:10;93121.72;;;-1.25;85.73
61870;BME280;47810;42.264;23.826;2023-01-28T01:17:43;93126.44;;;-1.11;85.44
61870;BME280;47810;42.264;23.826;2023-01-28T01:20:14;93122.59;;;-1.26;85.27
61870;BME280;47810;42.264;23.826;2023-01-28T01:22:42;93119.72;;;-1.17;84.60
61870;BME280;47810;42.264;23.826;2023-01-28T01:25:08;93116.53;;;-0.98;84.31
61870;BME280;47810;42.264;23.826;2023-01-28T01:27:37;93109.22;;;-1.12;84.39
61870;BME280;47810;42.264;23.826;2023-01-28T01:30:03;93121.00;;;-1.03;83.66
61870;BME280;47810;42.264;23.826;2023-01-28T01:32:30;93102.19;;;-1.08;83.33
61870;BME280;47810;42.264;23.826;2023-01-28T01:34:56;93113.66;;;-0.90;83.02
61870;BME280;47810;42.264;23.826;2023-01-28T01:37:22;93114.50;;;-0.90;83.00
61870;BME280;47810;42.264;23.826;2023-01-28T01:39:47;93112.31;;;-0.76;82.38
61870;BME280;47810;42.264;23.826;2023-01-28T01:42:15;93117.59;;;-0.79;81.98
61870;BME280;47810;42.264;23.826;2023-01-28T01:44:57;93126.06;;;-0.74;81.83
61870;BME280;47810;42.264;23.826;2023-01-28T01:47:33;93127.34;;;-0.60;81.50
61870;BME280;47810;42.264;23.826;2023-01-28T01:50:00;93133.50;;;-0.64;80.35
61870;BME280;47810;42.264;23.826;2023-01-28T01:52:27;93129.38;;;-0.45;80.38
61870;BME280;47810;42.264;23.826;2023-01-28T01:54:56;93134.81;;;-0.51;79.22
61870;BME280;47810;42.264;23.826;2023-01-28T01:57:26;93138.75;;;-0.41;79.16
61870;BME280;47810;42.264;23.826;2023-01-28T01:59:52;93129.03;;;-0.59;79.60
61870;BME280;47810;42.264;23.826;2023-01-28T02:02:18;93140.56;;;-0.68;79.98
61870;BME280;47810;42.264;23.826;2023-01-28T02:04:45;93134.41;;;-0.65;79.71
61870;BME280;47810;42.264;23.826;2023-01-28T02:07:12;93143.34;;;-0.49;79.36
61870;BME280;47810;42.264;23.826;2023-01-28T02:09:39;93138.97;;;-0.47;78.50
61870;BME280;47810;42.264;23.826;2023-01-28T02:14:31;93136.28;;;-0.44;79.17
61870;BME280;47810;42.264;23.826;2023-01-28T02:16:59;93140.22;;;-0.34;79.27
61870;BME280;47810;42.264;23.826;2023-01-28T02:19:28;93139.19;;;-0.53;79.21
61870;BME280;47810;42.264;23.826;2023-01-28T02:27:18;93134.72;;;-0.25;78.31
61870;BME280;47810;42.264;23.826;2023-01-28T02:30:01;93145.41;;;-0.34;76.83
61870;BME280;47810;42.264;23.826;2023-01-28T02:35:06;93145.63;;;-0.40;78.07
61870;BME280;47810;42.264;23.826;2023-01-28T02:37:37;93155.78;;;-0.59;78.26
61870;BME280;47810;42.264;23.826;2023-01-28T02:40:05;93148.97;;;-0.36;78.69
61870;BME280;47810;42.264;23.826;2023-01-28T02:42:33;93149.03;;;-0.38;78.41
61870;BME280;47810;42.264;23.826;2023-01-28T02:45:01;93149.75;;;-0.59;79.36
61870;BME280;47810;42.264;23.826;2023-01-28T02:47:26;93154.03;;;-0.58;79.63
61870;BME280;47810;42.264;23.826;2023-01-28T02:50:11;93163.03;;;-0.68;78.90
61870;BME280;47810;42.264;23.826;2023-01-28T02:58:14;93172.09;;;-0.55;79.53
61870;BME280;47810;42.264;23.826;2023-01-28T03:00:48;93158.22;;;-0.79;80.24
61870;BME280;47810;42.264;23.826;2023-01-28T03:06:14;93159.81;;;-0.75;81.01
61870;BME280;47810;42.264;23.826;2023-01-28T03:08:44;93157.78;;;-0.92;81.09
61870;BME280;47810;42.264;23.826;2023-01-28T03:11:30;93155.47;;;-0.75;80.69
61870;BME280;47810;42.264;23.826;2023-01-28T03:14:16;93160.50;;;-0.70;81.80
61870;BME280;47810;42.264;23.826;2023-01-28T03:17:00;93158.47;;;-0.87;81.47
61870;BME280;47810;42.264;23.826;2023-01-28T03:19:45;93171.22;;;-0.81;81.75
61870;BME280;47810;42.264;23.826;2023-01-28T03:22:31;93160.94;;;-0.84;82.05
61870;BME280;47810;42.264;23.826;2023-01-28T03:25:17;93161.41;;;-0.98;81.72
61870;BME280;47810;42.264;23.826;2023-01-28T03:28:03;93160.31;;;-0.90;81.64
61870;BME280;47810;42.264;23.826;2023-01-28T03:30:59;93169.09;;;-0.95;81.31
61870;BME280;47810;42.264;23.826;2023-01-28T03:33:44;93172.94;;;-0.80;81.38
61870;BME280;47810;42.264;23.826;2023-01-28T03:36:29;93176.19;;;-0.75;80.86
61870;BME280;47810;42.264;23.826;2023-01-28T03:39:13;93173.56;;;-0.73;81.29
61870;BME280;47810;42.264;23.826;2023-01-28T03:41:39;93173.97;;;-0.85;80.06
61870;BME280;47810;42.264;23.826;2023-01-28T03:44:04;93176.59;;;-0.87;80.08
61870;BME280;47810;42.264;23.826;2023-01-28T03:46:49;93173.22;;;-0.89;80.56
61870;BME280;47810;42.264;23.826;2023-01-28T03:49:15;93177.75;;;-0.69;80.05
61870;BME280;47810;42.264;23.826;2023-01-28T03:51:41;93174.09;;;-0.63;79.66
61870;BME280;47810;42.264;23.826;2023-01-28T03:54:07;93177.00;;;-0.73;78.81
61870;BME280;47810;42.264;23.826;2023-01-28T03:56:33;93183.19;;;-0.77;78.71
61870;BME280;47810;42.264;23.826;2023-01-28T03:59:05;93178.19;;;-0.56;78.22
61870;BME280;47810;42.264;23.826;2023-01-28T04:01:31;93195.78;;;-0.66;78.26
61870;BME280;47810;42.264;23.826;2023-01-28T04:03:56;93193.03;;;-0.61;77.84
61870;BME280;47810;42.264;23.826;2023-01-28T04:06:22;93186.06;;;-0.59;77.43
61870;BME280;47810;42.264;23.826;2023-01-28T04:08:47;93190.13;;;-0.52;77.26
61870;BME280;47810;42.264;23.826;2023-01-28T04:11:20;93181.59;;;-0.54;76.08
61870;BME280;47810;42.264;23.826;2023-01-28T04:13:47;93182.25;;;-0.49;76.13
61870;BME280;47810;42.264;23.826;2023-01-28T04:16:13;93186.06;;;-0.59;76.65
61870;BME280;47810;42.264;23.826;2023-01-28T04:18:39;93190.72;;;-0.44;76.08
61870;BME280;47810;42.264;23.826;2023-01-28T04:21:05;93196.38;;;-0.33;76.01
61870;BME280;47810;42.264;23.826;2023-01-28T04:23:30;93193.88;;;-0.36;75.69
61870;BME280;47810;42.264;23.826;2023-01-28T04:25:56;93199.19;;;-0.39;77.00
61870;BME280;47810;42.264;23.826;2023-01-28T04:28:21;93201.34;;;-0.52;76.57
61870;BME280;47810;42.264;23.826;2023-01-28T04:30:47;93202.53;;;-0.35;75.81
61870;BME280;47810;42.264;23.826;2023-01-28T04:33:12;93206.38;;;-0.47;76.10
61870;BME280;47810;42.264;23.826;2023-01-28T04:35:38;93224.53;;;-0.47;77.12
61870;BME280;47810;42.264;23.826;2023-01-28T04:38:04;93212.22;;;-0.40;76.02
61870;BME280;47810;42.264;23.826;2023-01-28T04:40:29;93195.91;;;-0.44;77.17
61870;BME280;47810;42.264;23.826;2023-01-28T04:42:55;93199.94;;;-0.35;76.01
61870;BME280;47810;42.264;23.826;2023-01-28T04:45:21;93209.25;;;-0.30;75.87
61870;BME280;47810;42.264;23.826;2023-01-28T04:47:46;93209.91;;;-0.48;76.46
61870;BME280;47810;42.264;23.826;2023-01-28T04:50:12;93210.25;;;-0.34;76.02
61870;BME280;47810;42.264;23.826;2023-01-28T04:52:37;93221.66;;;-0.38;77.43
61870;BME280;47810;42.264;23.826;2023-01-28T04:55:03;93220.50;;;-0.56;76.98
61870;BME280;47810;42.264;23.826;2023-01-28T04:57:29;93218.25;;;-0.40;77.34
61870;BME280;47810;42.264;23.826;2023-01-28T04:59:54;93223.72;;;-0.49;77.24
61870;BME280;47810;42.264;23.826;2023-01-28T05:02:20;93218.41;;;-0.44;77.00
61870;BME280;47810;42.264;23.826;2023-01-28T05:04:45;93229.63;;;-0.44;77.32
61870;BME280;47810;42.264;23.826;2023-01-28T05:07:11;93224.84;;;-0.56;77.77
61870;BME280;47810;42.264;23.826;2023-01-28T05:09:36;93231.81;;;-0.58;78.05
61870;BME280;47810;42.264;23.826;2023-01-28T05:12:02;93231.63;;;-0.52;77.46
61870;BME280;47810;42.264;23.826;2023-01-28T05:14:28;93234.31;;;-0.55;78.17
61870;BME280;47810;42.264;23.826;2023-01-28T05:16:53;93234.00;;;-0.46;77.52
61870;BME280;47810;42.264;23.826;2023-01-28T05:19:19;93227.13;;;-0.47;77.01
61870;BME280;47810;42.264;23.826;2023-01-28T05:21:44;93235.91;;;-0.51;77.21
61870;BME280;47810;42.264;23.826;2023-01-28T05:24:10;93237.19;;;-0.38;77.51
61870;BME280;47810;42.264;23.826;2023-01-28T05:26:36;93227.38;;;-0.28;76.85
61870;BME280;47810;42.264;23.826;2023-01-28T05:29:02;93231.81;;;-0.32;77.49
61870;BME280;47810;42.264;23.826;2023-01-28T05:31:27;93236.69;;;-0.49;76.29
61870;BME280;47810;42.264;23.826;2023-01-28T05:33:53;93235.56;;;-0.40;76.89
61870;BME280;47810;42.264;23.826;2023-01-28T05:36:18;93238.00;;;-0.62;77.23
61870;BME280;47810;42.264;23.826;2023-01-28T05:38:44;93239.06;;;-0.41;76.91
61870;BME280;47810;42.264;23.826;2023-01-28T05:41:09;93242.16;;;-0.57;77.59
61870;BME280;47810;42.264;23.826;2023-01-28T05:43:35;93237.50;;;-0.47;77.14
61870;BME280;47810;42.264;23.826;2023-01-28T05:46:00;93244.25;;;-0.41;77.29
61870;BME280;47810;42.264;23.826;2023-01-28T05:48:26;93254.69;;;-0.71;77.84
61870;BME280;47810;42.264;23.826;2023-01-28T05:50:52;93255.59;;;-0.45;76.40
61870;BME280;47810;42.264;23.826;2023-01-28T05:53:17;93257.63;;;-0.55;77.28
61870;BME280;47810;42.264;23.826;2023-01-28T05:55:46;93257.63;;;-0.55;77.41
61870;BME280;47810;42.264;23.826;2023-01-28T05:58:12;93262.72;;;-0.79;77.83
61870;BME280;47810;42.264;23.826;2023-01-28T06:00:37;93260.84;;;-0.74;77.67
61870;BME280;47810;42.264;23.826;2023-01-28T06:03:03;93268.53;;;-0.71;77.98
61870;BME280;47810;42.264;23.826;2023-01-28T06:05:28;93270.78;;;-0.61;78.35
61870;BME280;47810;42.264;23.826;2023-01-28T06:07:56;93269.00;;;-0.59;78.12
61870;BME280;47810;42.264;23.826;2023-01-28T06:10:21;93267.97;;;-0.54;77.92
61870;BME280;47810;42.264;23.826;2023-01-28T06:12:47;93271.06;;;-0.42;77.92
61870;BME280;47810;42.264;23.826;2023-01-28T06:15:12;93273.56;;;-0.66;78.23
61870;BME280;47810;42.264;23.826;2023-01-28T06:17:38;93273.19;;;-0.82;78.69
61870;BME280;47810;42.264;23.826;2023-01-28T06:20:03;93285.66;;;-0.66;77.85
61870;BME280;47810;42.264;23.826;2023-01-28T06:22:29;93286.34;;;-0.61;77.83
61870;BME280;47810;42.264;23.826;2023-01-28T06:24:54;93288.44;;;-0.73;77.67
61870;BME280;47810;42.264;23.826;2023-01-28T06:27:20;93297.13;;;-0.74;78.54
61870;BME280;47810;42.264;23.826;2023-01-28T06:29:45;93302.41;;;-0.77;78.84
61870;BME280;47810;42.264;23.826;2023-01-28T06:32:11;93301.34;;;-0.71;78.51
61870;BME280;47810;42.264;23.826;2023-01-28T06:34:36;93298.91;;;-0.76;78.59
61870;BME280;47810;42.264;23.826;2023-01-28T06:37:02;93298.16;;;-0.51;78.09
61870;BME280;47810;42.264;23.826;2023-01-28T06:39:28;93310.50;;;-0.59;77.76
61870;BME280;47810;42.264;23.826;2023-01-28T06:41:56;93314.19;;;-0.40;78.20
61870;BME280;47810;42.264;23.826;2023-01-28T06:44:21;93322.75;;;-0.64;78.01
61870;BME280;47810;42.264;23.826;2023-01-28T06:46:48;93326.09;;;-0.61;77.75
61870;BME280;47810;42.264;23.826;2023-01-28T06:49:13;93331.88;;;-0.53;77.74
61870;BME280;47810;42.264;23.826;2023-01-28T06:51:39;93327.44;;;-0.49;77.63
61870;BME280;47810;42.264;23.826;2023-01-28T06:54:05;93338.38;;;-0.39;77.94
61870;BME280;47810;42.264;23.826;2023-01-28T06:56:30;93337.16;;;-0.56;77.63
61870;BME280;47810;42.264;23.826;2023-01-28T06:58:56;93349.91;;;-0.48;77.40
61870;BME280;47810;42.264;23.826;2023-01-28T07:01:21;93352.00;;;-0.33;77.82
61870;BME280;47810;42.264;23.826;2023-01-28T07:03:49;93355.19;;;-0.25;77.88
61870;BME280;47810;42.264;23.826;2023-01-28T07:06:14;93357.97;;;-0.04;77.04
61870;BME280;47810;42.264;23.826;2023-01-28T07:08:40;93364.59;;;-0.49;76.70
61870;BME280;47810;42.264;23.826;2023-01-28T07:11:06;93359.03;;;-0.36;77.88
61870;BME280;47810;42.264;23.826;2023-01-28T07:13:31;93358.47;;;-0.46;77.11
61870;BME280;47810;42.264;23.826;2023-01-28T07:15:57;93366.13;;;-0.41;77.14
61870;BME280;47810;42.264;23.826;2023-01-28T07:18:23;93366.88;;;-0.38;77.43
61870;BME280;47810;42.264;23.826;2023-01-28T07:20:48;93367.66;;;-0.36;77.18
61870;BME280;47810;42.264;23.826;2023-01-28T07:23:14;93375.72;;;-0.45;77.36
61870;BME280;47810;42.264;23.826;2023-01-28T07:25:40;93374.13;;;-0.22;77.74
61870;BME280;47810;42.264;23.826;2023-01-28T07:28:05;93383.44;;;-0.15;77.04
61870;BME280;47810;42.264;23.826;2023-01-28T07:30:31;93383.72;;;-0.25;76.98
61870;BME280;47810;42.264;23.826;2023-01-28T07:32:57;93382.06;;;-0.27;77.61
61870;BME280;47810;42.264;23.826;2023-01-28T07:35:23;93381.72;;;-0.16;77.13
61870;BME280;47810;42.264;23.826;2023-01-28T07:37:52;93397.69;;;-0.29;77.66
61870;BME280;47810;42.264;23.826;2023-01-28T07:40:18;93394.94;;;-0.24;77.77
61870;BME280;47810;42.264;23.826;2023-01-28T07:42:43;93399.00;;;-0.15;77.24
61870;BME280;47810;42.264;23.826;2023-01-28T07:45:09;93392.25;;;0.06;77.24
61870;BME280;47810;42.264;23.826;2023-01-28T07:47:37;93405.63;;;-0.07;77.65
61870;BME280;47810;42.264;23.826;2023-01-28T07:50:02;93403.72;;;0.00;77.39
61870;BME280;47810;42.264;23.826;2023-01-28T07:52:28;93414.50;;;0.13;77.78
61870;BME280;47810;42.264;23.826;2023-01-28T07:54:53;93407.56;;;-0.13;77.11
61870;BME280;47810;42.264;23.826;2023-01-28T07:57:20;93413.47;;;-0.08;77.86
61870;BME280;47810;42.264;23.826;2023-01-28T07:59:49;93412.84;;;-0.16;77.10
61870;BME280;47810;42.264;23.826;2023-01-28T08:02:17;93421.16;;;-0.32;77.97
61870;BME280;47810;42.264;23.826;2023-01-28T08:04:43;93417.56;;;-0.01;77.73
61870;BME280;47810;42.264;23.826;2023-01-28T08:07:09;93418.75;;;-0.39;77.92
61870;BME280;47810;42.264;23.826;2023-01-28T08:09:34;93422.53;;;-0.50;77.80
61870;BME280;47810;42.264;23.826;2023-01-28T08:12:00;93423.41;;;-0.22;77.74
61870;BME280;47810;42.264;23.826;2023-01-28T08:14:28;93423.81;;;-0.35;78.56
61870;BME280;47810;42.264;23.826;2023-01-28T08:16:54;93420.31;;;-0.34;78.26
61870;BME280;47810;42.264;23.826;2023-01-28T08:19:19;93423.31;;;-0.19;78.47
61870;BME280;47810;42.264;23.826;2023-01-28T08:21:46;93424.97;;;-0.17;78.16
61870;BME280;47810;42.264;23.826;2023-01-28T08:24:12;93422.91;;;-0.34;77.54
61870;BME280;47810;42.264;23.826;2023-01-28T08:26:37;93428.31;;;-0.13;78.36
61870;BME280;47810;42.264;23.826;2023-01-28T08:29:03;93428.13;;;-0.07;77.47
61870;BME280;47810;42.264;23.826;2023-01-28T08:31:29;93427.00;;;0.02;77.94
61870;BME280;47810;42.264;23.826;2023-01-28T08:33:54;93430.03;;;-0.12;78.62
61870;BME280;47810;42.264;23.826;2023-01-28T08:36:20;93434.25;;;-0.10;78.30
61870;BME280;47810;42.264;23.826;2023-01-28T08:38:45;93428.97;;;-0.07;78.16
61870;BME280;47810;42.264;23.826;2023-01-28T08:41:12;93437.28;;;0.05;78.33
61870;BME280;47810;42.264;23.826;2023-01-28T08:43:38;93428.53;;;0.34;78.01
61870;BME280;47810;42.264;23.826;2023-01-28T08:46:04;93438.72;;;0.40;76.46
61870;BME280;47810;42.264;23.826;2023-01-28T08:48:29;93438.84;;;0.37;76.94
61870;BME280;47810;42.264;23.826;2023-01-28T08:50:57;93432.94;;;0.58;76.54
61870;BME280;47810;42.264;23.826;2023-01-28T08:53:24;93438.72;;;0.40;76.81
61870;BME280;47810;42.264;23.826;2023-01-28T08:55:49;93447.28;;;0.17;76.38
61870;BME280;47810;42.264;23.826;2023-01-28T08:58:16;93442.66;;;-0.02;77.09
61870;BME280;47810;42.264;23.826;2023-01-28T09:00:42;93435.91;;;-0.07;78.41
61870;BME280;47810;42.264;23.826;2023-01-28T09:03:08;93426.06;;;0.04;78.14
61870;BME280;47810;42.264;23.826;2023-01-28T09:05:34;93435.78;;;-0.03;77.91
61870;BME280;47810;42.264;23.826;2023-01-28T09:08:00;93431.44;;;0.25;76.96
61870;BME280;47810;42.264;23.826;2023-01-28T09:10:26;93436.53;;;0.28;77.25
61870;BME280;47810;42.264;23.826;2023-01-28T09:12:52;93438.84;;;0.37;76.78
61870;BME280;47810;42.264;23.826;2023-01-28T09:15:17;93450.75;;;0.16;77.42
61870;BME280;47810;42.264;23.826;2023-01-28T09:17:43;93446.63;;;0.10;76.87
61870;BME280;47810;42.264;23.826;2023-01-28T09:20:08;93440.41;;;-0.12;78.02
61870;BME280;47810;42.264;23.826;2023-01-28T09:22:34;93438.06;;;-0.20;78.16
61870;BME280;47810;42.264;23.826;2023-01-28T09:25:00;93442.50;;;-0.24;78.52
61870;BME280;47810;42.264;23.826;2023-01-28T09:27:25;93439.22;;;-0.02;77.86
61870;BME280;47810;42.264;23.826;2023-01-28T09:29:51;93442.03;;;0.18;78.29
61870;BME280;47810;42.264;23.826;2023-01-28T09:32:16;93447.00;;;-0.02;77.59
61870;BME280;47810;42.264;23.826;2023-01-28T09:34:42;93435.97;;;0.19;77.54
61870;BME280;47810;42.264;23.826;2023-01-28T09:37:09;93433.84;;;0.31;76.73
61870;BME280;47810;42.264;23.826;2023-01-28T09:39:35;93440.59;;;0.10;75.94
61870;BME280;47810;42.264;23.826;2023-01-28T09:47:01;93434.34;;;0.15;76.37
61870;BME280;47810;42.264;23.826;2023-01-28T09:49:36;93438.94;;;0.34;76.55
61870;BME280;47810;42.264;23.826;2023-01-28T09:52:03;93444.53;;;0.21;76.72
61870;BME280;47810;42.264;23.826;2023-01-28T09:57:05;93441.72;;;0.01;76.05
61870;BME280;47810;42.264;23.826;2023-01-28T09:59:33;93435.97;;;0.19;76.89
61870;BME280;47810;42.264;23.826;2023-01-28T10:04:29;93442.63;;;0.27;76.12
61870;BME280;47810;42.264;23.826;2023-01-28T10:16:55;93439.78;;;0.34;75.70
61870;BME280;47810;42.264;23.826;2023-01-28T10:22:00;93436.72;;;0.48;75.10
61870;BME280;47810;42.264;23.826;2023-01-28T10:24:37;93436.94;;;0.67;74.04
61870;BME280;47810;42.264;23.826;2023-01-28T10:30:08;93432.75;;;0.88;73.94
61870;BME280;47810;42.264;23.826;2023-01-28T10:32:40;93432.78;;;1.11;74.05
61870;BME280;47810;42.264;23.826;2023-01-28T10:35:08;93440.88;;;0.79;74.42
61870;BME280;47810;42.264;23.826;2023-01-28T10:37:34;93442.25;;;0.89;74.39
61870;BME280;47810;42.264;23.826;2023-01-28T10:40:01;93444.06;;;0.87;74.78
61870;BME280;47810;42.264;23.826;2023-01-28T10:42:29;93445.59;;;0.67;74.69
61870;BME280;47810;42.264;23.826;2023-01-28T10:44:56;93442.66;;;0.77;75.11
61870;BME280;47810;42.264;23.826;2023-01-28T10:47:26;93441.34;;;0.90;76.07
61870;BME280;47810;42.264;23.826;2023-01-28T10:49:53;93440.53;;;1.13;74.87
61870;BME280;47810;42.264;23.826;2023-01-28T10:52:21;93432.75;;;1.13;74.33
61870;BME280;47810;42.264;23.826;2023-01-28T10:54:46;93447.81;;;1.27;74.28
61870;BME280;47810;42.264;23.826;2023-01-28T10:57:13;93447.78;;;1.52;73.73
61870;BME280;47810;42.264;23.826;2023-01-28T10:59:40;93448.97;;;1.43;74.61
61870;BME280;47810;42.264;23.826;2023-01-28T11:04:44;93438.38;;;1.71;74.42
61870;BME280;47810;42.264;23.826;2023-01-28T11:07:19;93436.16;;;1.60;74.44
61870;BME280;47810;42.264;23.826;2023-01-28T11:09:46;93436.88;;;1.42;74.94
61870;BME280;47810;42.264;23.826;2023-01-28T11:12:19;93433.75;;;1.56;74.81
61870;BME280;47810;42.264;23.826;2023-01-28T11:17:17;93437.38;;;1.52;74.95
61870;BME280;47810;42.264;23.826;2023-01-28T11:19:43;93434.31;;;1.40;75.29
61870;BME280;47810;42.264;23.826;2023-01-28T11:24:46;93433.56;;;1.37;75.75
61870;BME280;47810;42.264;23.826;2023-01-28T11:27:14;93431.63;;;1.19;76.10
61870;BME280;47810;42.264;23.826;2023-01-28T11:29:41;93436.75;;;1.45;76.06
61870;BME280;47810;42.264;23.826;2023-01-28T11:32:17;93427.34;;;1.41;75.96
61870;BME280;47810;42.264;23.826;2023-01-28T11:34:53;93427.47;;;1.61;75.71
61870;BME280;47810;42.264;23.826;2023-01-28T11:37:22;93436.06;;;1.40;75.39
61870;BME280;47810;42.264;23.826;2023-01-28T11:39:48;93436.91;;;1.40;73.98
61870;BME280;47810;42.264;23.826;2023-01-28T11:42:18;93433.06;;;1.27;73.34
61870;BME280;47810;42.264;23.826;2023-01-28T11:44:44;93437.81;;;1.39;73.22
61870;BME280;47810;42.264;23.826;2023-01-28T11:55:03;93438.09;;;1.55;74.05
61870;BME280;47810;42.264;23.826;2023-01-28T12:07:59;93433.91;;;1.28;76.66
61870;BME280;47810;42.264;23.826;2023-01-28T12:10:35;93439.91;;;1.53;76.14
61870;BME280;47810;42.264;23.826;2023-01-28T12:15:38;93456.44;;;1.52;76.43
61870;BME280;47810;42.264;23.826;2023-01-28T12:21:04;93442.41;;;1.33;76.87
61870;BME280;47810;42.264;23.826;2023-01-28T12:23:47;93445.56;;;1.41;76.81
61870;BME280;47810;42.264;23.826;2023-01-28T12:27:04;93450.53;;;1.47;76.33
61870;BME280;47810;42.264;23.826;2023-01-28T12:44:51;93456.75;;;1.20;76.72
61870;BME280;47810;42.264;23.826;2023-01-28T12:47:23;93460.97;;;0.99;76.40
61870;BME280;47810;42.264;23.826;2023-01-28T12:49:57;93457.75;;;1.15;76.54
61870;BME280;47810;42.264;23.826;2023-01-28T12:52:43;93456.28;;;1.08;76.61
61870;BME280;47810;42.264;23.826;2023-01-28T12:55:15;93459.25;;;1.23;76.56
61870;BME280;47810;42.264;23.826;2023-01-28T12:57:42;93451.78;;;1.13;76.52
61870;BME280;47810;42.264;23.826;2023-01-28T13:05:32;93462.81;;;0.95;77.29
61870;BME280;47810;42.264;23.826;2023-01-28T13:08:11;93470.81;;;1.14;77.41
61870;BME280;47810;42.264;23.826;2023-01-28T13:10:41;93471.88;;;1.08;77.02
61870;BME280;47810;42.264;23.826;2023-01-28T13:13:29;93477.16;;;0.82;78.08
61870;BME280;47810;42.264;23.826;2023-01-28T13:15:54;93476.78;;;0.67;78.90
61870;BME280;47810;42.264;23.826;2023-01-28T13:21:01;93485.66;;;0.87;78.75
61870;BME280;47810;42.264;23.826;2023-01-28T13:28:41;93486.53;;;0.86;78.76
61870;BME280;47810;42.264;23.826;2023-01-28T13:31:08;93484.03;;;0.83;78.90
61870;BME280;47810;42.264;23.826;2023-01-28T13:33:39;93488.28;;;1.10;78.63
61870;BME280;47810;42.264;23.826;2023-01-28T13:36:15;93489.97;;;1.11;78.11
61870;BME280;47810;42.264;23.826;2023-01-28T13:38:46;93501.97;;;0.90;78.72
61870;BME280;47810;42.264;23.826;2023-01-28T13:41:11;93502.41;;;1.03;79.11
61870;BME280;47810;42.264;23.826;2023-01-28T13:43:38;93500.25;;;1.14;77.88
61870;BME280;47810;42.264;23.826;2023-01-28T13:46:14;93500.44;;;1.10;77.70
61870;BME280;47810;42.264;23.826;2023-01-28T13:48:51;93508.03;;;0.91;78.28
61870;BME280;47810;42.264;23.826;2023-01-28T13:51:29;93507.16;;;0.90;78.51
61870;BME280;47810;42.264;23.826;2023-01-28T13:53:59;93516.97;;;1.07;78.17
61870;BME280;47810;42.264;23.826;2023-01-28T14:01:54;93514.38;;;1.07;77.82
61870;BME280;47810;42.264;23.826;2023-01-28T14:07:01;93525.00;;;1.01;77.89
61870;BME280;47810;42.264;23.826;2023-01-28T14:15:02;93527.31;;;1.09;77.79
61870;BME280;47810;42.264;23.826;2023-01-28T14:22:43;93533.72;;;0.47;78.55
61870;BME280;47810;42.264;23.826;2023-01-28T14:25:13;93543.22;;;0.75;78.80
61870;BME280;47810;42.264;23.826;2023-01-28T14:27:41;93542.03;;;0.83;78.42
61870;BME280;47810;42.264;23.826;2023-01-28T14:30:17;93547.75;;;0.68;78.86
61870;BME280;47810;42.264;23.826;2023-01-28T14:32:48;93547.56;;;0.74;78.86
61870;BME280;47810;42.264;23.826;2023-01-28T14:35:18;93538.59;;;0.83;78.56
61870;BME280;47810;42.264;23.826;2023-01-28T14:37:47;93542.03;;;0.83;78.27
61870;BME280;47810;42.264;23.826;2023-01-28T14:40:13;93544.81;;;0.79;78.45
61870;BME280;47810;42.264;23.826;2023-01-28T14:42:44;93544.97;;;0.74;78.17
61870;BME280;47810;42.264;23.826;2023-01-28T14:45:28;93552.78;;;0.73;78.66
61870;BME280;47810;42.264;23.826;2023-01-28T14:48:09;93550.28;;;0.69;78.94
61870;BME280;47810;42.264;23.826;2023-01-28T14:58:26;93561.50;;;0.72;78.77
61870;BME280;47810;42.264;23.826;2023-01-28T15:00:55;93556.59;;;0.62;79.00
61870;BME280;47810;42.264;23.826;2023-01-28T15:03:21;93559.28;;;0.59;79.08
61870;BME280;47810;42.264;23.826;2023-01-28T15:05:46;93564.97;;;0.44;79.33
61870;BME280;47810;42.264;23.826;2023-01-28T15:08:21;93572.25;;;0.33;79.79
61870;BME280;47810;42.264;23.826;2023-01-28T15:10:48;93564.88;;;0.47;79.33
61870;BME280;47810;42.264;23.826;2023-01-28T15:13:28;93573.19;;;0.58;79.04
61870;BME280;47810;42.264;23.826;2023-01-28T15:15:56;93576.63;;;0.31;79.63
61870;BME280;47810;42.264;23.826;2023-01-28T15:18:36;93582.28;;;0.15;79.43
61870;BME280;47810;42.264;23.826;2023-01-28T15:21:02;93577.81;;;0.20;80.04